Time;durP1;ratioP1;P1;durP2;ratioP2;P2;SDS_P1;SDS_P2;PMS_P1;PMS_P2;Temp;Humidity;BMP_temperature;BMP_pressure;BME280_temperature;BME280_humidity;BME280_pressure;Samples;Min_cycle;Max_cycle;Signal;HPM_P1;HPM_P2
2023/08/21 00:00:54;;;;;;;;;;;;;;;28.00;41.66;100894.47;5070349;28;19958;-52
2023/08/21 00:03:20;;;;;;;;;;;;;;;28.09;41.71;100882.75;5083783;28;19963;-50
2023/08/21 00:05:45;;;;;;;;;;;;;;;28.13;41.72;100886.53;5087604;28;19926;-50
2023/08/21 00:08:11;;;;;;;;;;;;;;;28.11;41.63;100889.59;5091973;28;19912;-52
2023/08/21 00:10:40;;;;;;;;;;;;;;;28.13;42.00;100887.34;5087324;28;20021;-50
2023/08/21 00:13:06;;;;;;;;;;;;;;;28.10;42.22;100884.38;5073743;28;19921;-49
2023/08/21 00:15:31;;;;;;;;;;;;;;;27.99;41.93;100879.03;5075327;28;20335;-52
2023/08/21 00:17:56;;;;;;;;;;;;;;;27.89;42.24;100887.47;5071180;28;19995;-51
2023/08/21 00:20:22;;;;;;;;;;;;;;;27.85;42.37;100880.88;5075068;28;19913;-49
2023/08/21 00:22:47;;;;;;;;;;;;;;;27.80;42.49;100879.03;5074106;28;19955;-49
2023/08/21 00:25:12;;;;;;;;;;;;;;;27.77;42.75;100892.59;5076122;28;20341;-52
2023/08/21 00:27:37;;;;;;;;;;;;;;;27.76;42.62;100879.91;5074613;28;19964;-51
2023/08/21 00:30:03;;;;;;;;;;;;;;;27.77;42.65;100876.03;5077299;28;19916;-52
2023/08/21 00:32:28;;;;;;;;;;;;;;;27.86;42.61;100878.91;5093730;28;20360;-51
2023/08/21 00:34:54;;;;;;;;;;;;;;;27.88;42.43;100873.91;5074814;28;19967;-49
2023/08/21 00:37:19;;;;;;;;;;;;;;;27.98;42.56;100866.31;5077901;28;20296;-50
2023/08/21 00:39:44;;;;;;;;;;;;;;;28.07;42.33;100874.75;5074669;28;19921;-50
2023/08/21 00:42:10;;;;;;;;;;;;;;;28.06;42.57;100866.78;5079688;28;19916;-50
2023/08/21 00:44:35;;;;;;;;;;;;;;;28.05;41.88;100867.91;5095100;28;20103;-51
2023/08/21 00:47:00;;;;;;;;;;;;;;;27.93;42.13;100866.41;5094857;28;19922;-53
2023/08/21 00:49:26;;;;;;;;;;;;;;;27.96;41.96;100879.63;5090733;28;19916;-50
2023/08/21 00:51:53;;;;;;;;;;;;;;;27.91;41.96;100879.69;5094997;28;19919;-54
2023/08/21 00:54:18;;;;;;;;;;;;;;;27.93;42.20;100863.66;5079026;28;19917;-53
2023/08/21 00:56:44;;;;;;;;;;;;;;;27.86;42.05;100873.41;5066219;28;19923;-50
2023/08/21 00:59:10;;;;;;;;;;;;;;;27.86;42.14;100867.88;5075015;28;20276;-50
2023/08/21 01:01:36;;;;;;;;;;;;;;;27.95;42.68;100861.44;5071603;28;19916;-50
2023/08/21 01:04:01;;;;;;;;;;;;;;;27.83;42.06;100858.28;5073017;28;19925;-52
2023/08/21 01:06:35;;;;;;;;;;;;;;;27.86;42.03;100865.97;5071946;28;19912;-52
2023/08/21 01:09:19;;;;;;;;;;;;;;;27.88;41.82;100857.34;5068550;28;20442;-49
2023/08/21 01:11:54;;;;;;;;;;;;;;;27.89;42.15;100870.91;5074220;28;19912;-51
2023/08/21 01:14:31;;;;;;;;;;;;;;;27.88;41.94;100868.41;5061254;28;19978;-51
2023/08/21 01:16:58;;;;;;;;;;;;;;;27.78;42.13;100872.97;5073757;28;19960;-52
2023/08/21 01:19:44;;;;;;;;;;;;;;;27.85;42.27;100869.03;5070376;28;19942;-49
2023/08/21 01:22:09;;;;;;;;;;;;;;;27.83;41.72;100863.78;5073170;28;20272;-50
2023/08/21 01:24:35;;;;;;;;;;;;;;;27.89;41.99;100856.25;5072861;28;20011;-50
2023/08/21 01:27:01;;;;;;;;;;;;;;;27.95;41.62;100857.81;5070638;28;19917;-53
2023/08/21 01:29:27;;;;;;;;;;;;;;;28.00;42.15;100853.03;5073219;28;20020;-55
2023/08/21 01:31:58;;;;;;;;;;;;;;;28.04;42.09;100850.50;5069723;28;20011;-55
2023/08/21 01:34:23;;;;;;;;;;;;;;;28.10;42.78;100842.94;5072548;28;19924;-53
2023/08/21 01:36:48;;;;;;;;;;;;;;;28.12;41.88;100837.94;5069204;28;20479;-49
2023/08/21 01:39:14;;;;;;;;;;;;;;;28.13;41.75;100840.41;5069365;28;20254;-50
2023/08/21 01:41:39;;;;;;;;;;;;;;;28.10;42.04;100841.03;5073821;28;19952;-49
2023/08/21 01:44:04;;;;;;;;;;;;;;;28.10;42.17;100835.50;5070598;28;19912;-52
2023/08/21 01:46:30;;;;;;;;;;;;;;;28.10;42.07;100838.25;5071455;28;19916;-49
2023/08/21 01:48:55;;;;;;;;;;;;;;;28.10;41.72;100831.91;5073285;28;19913;-50
2023/08/21 01:51:20;;;;;;;;;;;;;;;28.13;41.86;100834.06;5069663;28;19924;-51
2023/08/21 01:53:46;;;;;;;;;;;;;;;28.19;41.54;100835.59;5072471;28;19913;-51
2023/08/21 01:56:11;;;;;;;;;;;;;;;28.23;41.20;100831.13;5071626;28;19920;-50
2023/08/21 01:58:36;;;;;;;;;;;;;;;28.31;41.66;100838.72;5069987;28;19912;-49
2023/08/21 02:01:03;;;;;;;;;;;;;;;28.30;41.39;100834.28;5072829;28;19912;-50
2023/08/21 02:03:30;;;;;;;;;;;;;;;28.29;41.45;100831.88;5066735;28;20280;-49
2023/08/21 02:05:59;;;;;;;;;;;;;;;28.29;41.23;100835.44;5064043;28;19916;-51
2023/08/21 02:08:26;;;;;;;;;;;;;;;28.29;41.03;100832.66;5093015;28;20006;-51
2023/08/21 02:10:52;;;;;;;;;;;;;;;28.25;41.07;100831.66;5088000;28;19951;-50
2023/08/21 02:13:18;;;;;;;;;;;;;;;28.29;41.38;100840.16;5086365;28;19956;-52
2023/08/21 02:15:43;;;;;;;;;;;;;;;28.33;41.43;100830.13;5076693;28;19932;-52
2023/08/21 02:18:09;;;;;;;;;;;;;;;28.34;41.07;100828.97;5057700;28;20309;-51
2023/08/21 02:20:34;;;;;;;;;;;;;;;28.37;41.72;100822.84;5072436;28;19955;-51
2023/08/21 02:22:59;;;;;;;;;;;;;;;28.37;41.09;100820.09;5069376;28;20480;-50
2023/08/21 02:25:25;;;;;;;;;;;;;;;28.39;41.66;100817.84;5072647;28;19912;-49
2023/08/21 02:27:50;;;;;;;;;;;;;;;28.34;40.94;100824.31;5066675;28;19932;-50
2023/08/21 02:30:15;;;;;;;;;;;;;;;28.33;41.27;100817.13;5092342;28;20476;-49
2023/08/21 02:32:41;;;;;;;;;;;;;;;28.35;41.47;100828.69;5092065;28;19920;-49
2023/08/21 02:35:07;;;;;;;;;;;;;;;28.37;41.30;100817.34;5088728;28;20041;-49
2023/08/21 02:37:33;;;;;;;;;;;;;;;28.31;40.57;100819.38;5092062;28;19919;-51
2023/08/21 02:39:59;;;;;;;;;;;;;;;28.21;40.71;100814.03;5089573;28;20011;-50
2023/08/21 02:42:24;;;;;;;;;;;;;;;28.27;41.06;100821.09;5089344;28;19916;-49
2023/08/21 02:44:50;;;;;;;;;;;;;;;28.33;41.36;100808.03;5072840;28;20202;-49
2023/08/21 02:47:15;;;;;;;;;;;;;;;28.23;40.68;100810.97;5080055;28;19912;-53
2023/08/21 02:49:40;;;;;;;;;;;;;;;28.29;41.21;100807.81;5091821;28;19924;-51
2023/08/21 02:52:05;;;;;;;;;;;;;;;28.36;41.03;100813.75;5078036;28;20262;-50
2023/08/21 02:54:31;;;;;;;;;;;;;;;28.39;40.59;100802.06;5071730;28;19920;-49
2023/08/21 02:56:56;;;;;;;;;;;;;;;28.39;40.67;100807.59;5072005;28;20332;-50
2023/08/21 02:59:21;;;;;;;;;;;;;;;28.41;40.74;100804.53;5076364;28;19919;-51
2023/08/21 03:01:47;;;;;;;;;;;;;;;28.39;40.62;100799.31;5092215;28;19912;-50
2023/08/21 03:04:12;;;;;;;;;;;;;;;28.32;40.82;100803.59;5087825;28;19928;-51
2023/08/21 03:06:37;;;;;;;;;;;;;;;28.36;40.63;100794.41;5071363;28;20281;-51
2023/08/21 03:09:03;;;;;;;;;;;;;;;28.30;40.48;100801.16;5071341;28;20387;-50
2023/08/21 03:11:28;;;;;;;;;;;;;;;28.28;40.53;100797.06;5074502;28;19962;-50
2023/08/21 03:13:53;;;;;;;;;;;;;;;28.24;40.92;100790.50;5080038;28;19962;-51
2023/08/21 03:16:19;;;;;;;;;;;;;;;28.06;40.65;100795.78;5071826;28;20011;-50
2023/08/21 03:18:57;;;;;;;;;;;;;;;28.03;40.79;100803.84;5081276;28;19912;-50
2023/08/21 03:21:23;;;;;;;;;;;;;;;28.03;40.61;100799.16;5091522;28;19932;-53
2023/08/21 03:23:54;;;;;;;;;;;;;;;28.10;41.18;100801.53;5088616;28;19916;-50
2023/08/21 03:26:19;;;;;;;;;;;;;;;28.02;40.78;100799.47;5092103;28;19912;-51
2023/08/21 03:28:44;;;;;;;;;;;;;;;27.93;40.80;100789.09;5091041;28;19976;-50
2023/08/21 03:31:09;;;;;;;;;;;;;;;27.87;40.50;100795.81;5077358;28;19957;-54
2023/08/21 03:33:35;;;;;;;;;;;;;;;27.86;41.01;100790.59;5091634;28;20388;-50
2023/08/21 03:36:00;;;;;;;;;;;;;;;27.93;40.66;100786.34;5087047;28;20020;-51
2023/08/21 03:38:25;;;;;;;;;;;;;;;27.99;40.75;100787.91;5068072;28;20261;-49
2023/08/21 03:40:50;;;;;;;;;;;;;;;28.02;40.61;100789.25;5087686;28;20272;-50
2023/08/21 03:43:16;;;;;;;;;;;;;;;28.03;40.24;100788.13;5078448;28;20007;-51
2023/08/21 03:45:41;;;;;;;;;;;;;;;27.97;40.83;100790.16;5075844;28;19935;-51
2023/08/21 03:48:06;;;;;;;;;;;;;;;27.94;40.64;100790.75;5074465;28;19999;-50
2023/08/21 03:50:32;;;;;;;;;;;;;;;27.88;40.35;100786.44;5069490;28;19917;-52
2023/08/21 03:52:57;;;;;;;;;;;;;;;27.81;40.19;100788.75;5074187;28;20057;-50
2023/08/21 03:55:22;;;;;;;;;;;;;;;27.73;40.80;100787.50;5070961;28;19923;-49
2023/08/21 03:57:48;;;;;;;;;;;;;;;27.65;40.81;100784.59;5072802;28;20380;-53
2023/08/21 04:00:13;;;;;;;;;;;;;;;27.67;41.42;100798.91;5071725;28;19917;-52
2023/08/21 04:02:38;;;;;;;;;;;;;;;27.55;41.24;100785.59;5073205;28;19919;-53
2023/08/21 04:05:04;;;;;;;;;;;;;;;27.43;41.35;100794.31;5094848;28;19916;-51
2023/08/21 04:07:29;;;;;;;;;;;;;;;27.33;41.48;100795.28;5076077;28;20199;-50
2023/08/21 04:09:54;;;;;;;;;;;;;;;27.32;41.07;100790.06;5085018;28;19991;-51
2023/08/21 04:12:20;;;;;;;;;;;;;;;27.26;41.65;100794.03;5073897;28;20066;-50
2023/08/21 04:14:45;;;;;;;;;;;;;;;27.29;41.56;100787.91;5071882;28;19963;-53
2023/08/21 04:17:10;;;;;;;;;;;;;;;27.22;41.84;100793.75;5072066;28;19920;-53
2023/08/21 04:19:36;;;;;;;;;;;;;;;27.26;41.74;100794.03;5070969;28;19958;-54
2023/08/21 04:22:01;;;;;;;;;;;;;;;27.11;42.07;100787.56;5075040;28;20357;-51
2023/08/21 04:24:26;;;;;;;;;;;;;;;27.12;41.93;100786.47;5074362;28;20009;-54
2023/08/21 04:26:52;;;;;;;;;;;;;;;27.22;41.60;100788.25;5068753;28;19935;-50
2023/08/21 04:29:17;;;;;;;;;;;;;;;27.06;41.98;100793.19;5080270;28;19951;-50
2023/08/21 04:31:42;;;;;;;;;;;;;;;27.13;41.73;100796.38;5077606;28;19916;-50
2023/08/21 04:34:08;;;;;;;;;;;;;;;27.07;41.72;100781.03;5084154;28;19967;-50
2023/08/21 04:36:33;;;;;;;;;;;;;;;27.07;42.03;100786.53;5074761;28;20371;-52
2023/08/21 04:38:58;;;;;;;;;;;;;;;27.13;42.24;100782.56;5088880;28;19913;-53
2023/08/21 04:41:23;;;;;;;;;;;;;;;27.15;42.69;100782.28;5094913;28;19916;-53
2023/08/21 04:43:49;;;;;;;;;;;;;;;27.07;42.51;100777.44;5086463;28;19920;-52
2023/08/21 04:46:14;;;;;;;;;;;;;;;27.17;41.88;100772.63;5073686;28;20254;-54
2023/08/21 04:48:39;;;;;;;;;;;;;;;27.30;41.45;100776.56;5074557;28;19939;-49
2023/08/21 04:51:05;;;;;;;;;;;;;;;27.40;41.85;100773.66;5073151;28;19920;-51
2023/08/21 04:53:30;;;;;;;;;;;;;;;27.51;41.54;100776.28;5074424;28;19922;-54
2023/08/21 04:55:58;;;;;;;;;;;;;;;27.40;40.99;100773.66;5076295;28;19916;-51
2023/08/21 04:58:24;;;;;;;;;;;;;;;27.35;41.42;100770.97;5074426;28;19936;-49
2023/08/21 05:00:49;;;;;;;;;;;;;;;27.41;41.41;100772.56;5074331;28;20299;-53
2023/08/21 05:03:14;;;;;;;;;;;;;;;27.62;41.58;100780.50;5067083;28;19927;-51
2023/08/21 05:05:40;;;;;;;;;;;;;;;27.67;41.26;100774.06;5053599;28;19952;-53
2023/08/21 05:08:05;;;;;;;;;;;;;;;27.50;41.41;100767.16;5054092;28;19935;-51
2023/08/21 05:10:30;;;;;;;;;;;;;;;27.56;41.53;100771.50;5052381;28;19997;-50
2023/08/21 05:12:56;;;;;;;;;;;;;;;27.73;41.20;100772.88;5053754;28;19913;-49
2023/08/21 05:15:22;;;;;;;;;;;;;;;27.86;40.88;100771.28;5050677;28;19916;-51
2023/08/21 05:17:47;;;;;;;;;;;;;;;27.83;40.71;100769.94;5051603;28;19921;-49
2023/08/21 05:20:14;;;;;;;;;;;;;;;27.81;40.80;100774.94;5052570;28;20382;-50
2023/08/21 05:22:40;;;;;;;;;;;;;;;27.59;41.01;100773.63;5052555;28;19923;-51
2023/08/21 05:25:05;;;;;;;;;;;;;;;27.38;40.70;100775.91;5053769;28;19995;-50
2023/08/21 05:27:30;;;;;;;;;;;;;;;27.52;41.22;100770.44;5052324;28;19924;-54
2023/08/21 05:29:56;;;;;;;;;;;;;;;27.34;41.16;100769.34;5051674;28;19913;-55
2023/08/21 05:32:21;;;;;;;;;;;;;;;27.27;40.88;100773.63;5053208;28;19912;-55
2023/08/21 05:34:46;;;;;;;;;;;;;;;27.18;41.19;100774.25;5052222;28;20296;-54
2023/08/21 05:37:11;;;;;;;;;;;;;;;27.37;41.11;100768.75;5053706;28;19913;-54
2023/08/21 05:39:37;;;;;;;;;;;;;;;27.39;41.20;100766.50;5052285;28;19916;-51
2023/08/21 05:42:02;;;;;;;;;;;;;;;27.46;41.39;100773.59;5053822;28;19913;-49
2023/08/21 05:44:27;;;;;;;;;;;;;;;27.58;40.64;100771.19;5033795;28;19920;-49
2023/08/21 05:46:53;;;;;;;;;;;;;;;27.48;40.48;100774.94;5050690;28;20325;-49
2023/08/21 05:49:19;;;;;;;;;;;;;;;27.44;40.64;100775.84;5053570;28;19913;-49
2023/08/21 05:51:44;;;;;;;;;;;;;;;27.56;40.84;100767.91;5051562;28;20375;-49
2023/08/21 05:54:09;;;;;;;;;;;;;;;27.69;40.78;100774.59;5052585;28;20026;-49
2023/08/21 05:56:34;;;;;;;;;;;;;;;27.66;40.20;100775.22;5052932;28;19917;-49
2023/08/21 05:59:00;;;;;;;;;;;;;;;27.65;40.41;100771.63;5050828;28;20011;-50
2023/08/21 06:01:25;;;;;;;;;;;;;;;27.79;40.20;100778.00;5052468;28;19967;-50
2023/08/21 06:03:50;;;;;;;;;;;;;;;27.76;40.51;100775.84;5063008;28;19936;-50
2023/08/21 06:06:15;;;;;;;;;;;;;;;27.81;39.78;100775.75;5072807;28;19912;-51
2023/08/21 06:08:41;;;;;;;;;;;;;;;27.80;39.88;100781.56;5071206;28;20388;-49
2023/08/21 06:11:06;;;;;;;;;;;;;;;27.72;40.29;100777.56;5071043;28;20389;-52
2023/08/21 06:13:31;;;;;;;;;;;;;;;27.79;39.43;100785.47;5072856;28;19969;-49
2023/08/21 06:15:56;;;;;;;;;;;;;;;27.76;39.56;100781.34;5071281;28;19962;-50
2023/08/21 06:18:22;;;;;;;;;;;;;;;27.86;40.08;100776.78;5071877;28;20238;-49
2023/08/21 06:20:48;;;;;;;;;;;;;;;27.94;39.17;100776.16;5073023;28;19912;-50
2023/08/21 06:23:13;;;;;;;;;;;;;;;28.13;39.66;100779.66;5068756;28;19938;-50
2023/08/21 06:25:38;;;;;;;;;;;;;;;28.14;39.09;100778.53;5072470;28;19912;-49
2023/08/21 06:28:04;;;;;;;;;;;;;;;28.17;39.51;100777.91;5071412;28;19975;-50
2023/08/21 06:30:29;;;;;;;;;;;;;;;28.24;39.38;100785.81;5071605;28;19943;-50
2023/08/21 06:32:55;;;;;;;;;;;;;;;28.39;38.74;100782.75;5070536;28;19916;-54
2023/08/21 06:35:20;;;;;;;;;;;;;;;28.49;39.01;100787.28;5070640;28;20405;-54
2023/08/21 06:37:46;;;;;;;;;;;;;;;28.58;38.81;100801.19;5072812;28;20288;-54
2023/08/21 06:40:11;;;;;;;;;;;;;;;28.68;38.95;100795.47;5071817;28;20396;-53
2023/08/21 06:42:37;;;;;;;;;;;;;;;28.70;38.46;100793.22;5071403;28;19919;-51
2023/08/21 06:45:03;;;;;;;;;;;;;;;28.86;38.84;100792.91;5072607;28;19912;-51
2023/08/21 06:47:28;;;;;;;;;;;;;;;28.82;37.97;100795.44;5070443;28;20003;-53
2023/08/21 06:49:54;;;;;;;;;;;;;;;28.86;37.99;100796.50;5071009;28;20049;-51
2023/08/21 06:52:19;;;;;;;;;;;;;;;28.84;38.12;100800.69;5071712;28;19920;-52
2023/08/21 06:54:45;;;;;;;;;;;;;;;28.78;37.38;100797.19;5069857;28;19924;-53
2023/08/21 06:57:10;;;;;;;;;;;;;;;28.70;37.59;100796.00;5072118;28;19977;-54
2023/08/21 06:59:36;;;;;;;;;;;;;;;28.85;38.24;100800.38;5070123;28;19912;-57
2023/08/21 07:02:05;;;;;;;;;;;;;;;28.96;37.52;100789.91;5071503;28;19974;-64
2023/08/21 07:04:30;;;;;;;;;;;;;;;29.09;37.02;100797.38;5089020;28;19927;-63
2023/08/21 07:06:55;;;;;;;;;;;;;;;28.88;36.36;100796.16;5087066;28;19998;-63
2023/08/21 07:09:21;;;;;;;;;;;;;;;28.88;37.52;100783.19;5090826;28;19954;-63
2023/08/21 07:11:46;;;;;;;;;;;;;;;28.87;37.52;100786.25;5070229;28;19984;-63
2023/08/21 07:14:16;;;;;;;;;;;;;;;28.90;37.30;100786.44;5086010;28;20027;-63
2023/08/21 07:16:45;;;;;;;;;;;;;;;28.99;36.79;100792.03;5087094;28;19913;-63
2023/08/21 07:19:10;;;;;;;;;;;;;;;28.92;38.09;100791.69;5090946;28;19965;-64
2023/08/21 07:21:36;;;;;;;;;;;;;;;28.80;37.26;100792.19;5097932;28;19912;-63
2023/08/21 07:24:04;;;;;;;;;;;;;;;28.80;37.74;100794.94;5083596;28;19920;-63
2023/08/21 07:26:30;;;;;;;;;;;;;;;28.79;37.66;100800.78;5090402;28;19991;-63
2023/08/21 07:28:55;;;;;;;;;;;;;;;28.58;37.17;100803.97;5077381;28;20425;-63
2023/08/21 07:31:20;;;;;;;;;;;;;;;28.55;37.58;100804.59;5094861;28;19927;-63
2023/08/21 07:33:46;;;;;;;;;;;;;;;28.59;37.02;100805.63;5081733;28;20257;-63
2023/08/21 07:36:16;;;;;;;;;;;;;;;28.56;37.35;100808.97;5076945;28;20376;-63
2023/08/21 07:38:42;;;;;;;;;;;;;;;28.11;37.64;100806.75;5078439;28;19916;-63
2023/08/21 07:41:09;;;;;;;;;;;;;;;28.21;37.80;100799.41;5077426;28;19919;-64
2023/08/21 07:43:35;;;;;;;;;;;;;;;28.38;37.75;100807.94;5087217;28;19923;-63
2023/08/21 07:46:07;;;;;;;;;;;;;;;28.41;37.37;100803.72;5099033;28;19964;-63
2023/08/21 07:48:33;;;;;;;;;;;;;;;28.33;37.78;100811.59;5080664;28;20049;-64
2023/08/21 07:50:58;;;;;;;;;;;;;;;28.42;37.48;100811.72;5078251;28;19991;-63
2023/08/21 07:53:24;;;;;;;;;;;;;;;28.53;37.55;100807.66;5077964;28;19913;-63
2023/08/21 07:55:49;;;;;;;;;;;;;;;28.54;37.32;100801.00;5091722;28;19916;-63
2023/08/21 07:58:15;;;;;;;;;;;;;;;28.50;36.64;100812.94;5095948;28;19920;-63
2023/08/21 08:00:45;;;;;;;;;;;;;;;28.54;37.25;100814.81;5096178;28;19931;-63
2023/08/21 08:03:10;;;;;;;;;;;;;;;28.45;36.86;100822.13;5098131;28;20379;-63
2023/08/21 08:05:36;;;;;;;;;;;;;;;28.43;37.34;100816.09;5098565;28;19912;-63
2023/08/21 08:08:01;;;;;;;;;;;;;;;28.33;36.85;100817.13;5082031;28;20316;-63
2023/08/21 08:10:26;;;;;;;;;;;;;;;28.26;36.80;100818.66;5078223;28;20248;-63
2023/08/21 08:12:53;;;;;;;;;;;;;;;28.28;37.07;100819.16;5083333;28;19919;-63
2023/08/21 08:15:18;;;;;;;;;;;;;;;28.17;36.56;100819.31;5078102;28;19916;-63
2023/08/21 08:17:45;;;;;;;;;;;;;;;28.09;36.55;100813.72;5078410;28;19913;-63
2023/08/21 08:20:11;;;;;;;;;;;;;;;28.13;37.94;100811.97;5078351;28;19917;-63
2023/08/21 08:22:36;;;;;;;;;;;;;;;28.21;37.22;100815.97;5077989;28;19916;-63
2023/08/21 08:25:02;;;;;;;;;;;;;;;28.22;37.06;100810.16;5077923;28;19912;-63
2023/08/21 08:27:27;;;;;;;;;;;;;;;28.35;38.14;100816.81;5078060;28;19938;-64
2023/08/21 08:29:52;;;;;;;;;;;;;;;28.47;37.82;100817.16;5077710;28;19922;-63
2023/08/21 08:32:17;;;;;;;;;;;;;;;28.41;36.15;100823.06;5088415;28;19912;-63
2023/08/21 08:34:46;;;;;;;;;;;;;;;28.46;36.08;100814.69;5094436;28;20011;-63
2023/08/21 08:37:11;;;;;;;;;;;;;;;28.54;37.60;100819.53;5090692;28;19955;-63
2023/08/21 08:39:37;;;;;;;;;;;;;;;28.33;36.05;100816.31;5079109;28;19966;-63
2023/08/21 08:42:05;;;;;;;;;;;;;;;28.24;36.11;100823.66;5056711;28;20024;-63
2023/08/21 08:44:34;;;;;;;;;;;;;;;28.38;36.60;100819.78;5081678;28;19912;-63
2023/08/21 08:47:00;;;;;;;;;;;;;;;28.44;36.71;100817.75;5089717;28;19924;-63
2023/08/21 08:49:26;;;;;;;;;;;;;;;28.57;37.04;100814.22;5079588;28;19917;-63
2023/08/21 08:51:55;;;;;;;;;;;;;;;28.71;36.86;100822.47;5074923;28;19920;-64
2023/08/21 08:54:22;;;;;;;;;;;;;;;28.65;36.37;100806.31;5073681;28;19912;-64
2023/08/21 08:56:47;;;;;;;;;;;;;;;28.75;36.09;100808.88;5088195;28;19987;-63
2023/08/21 08:59:14;;;;;;;;;;;;;;;28.86;36.65;100802.03;5095077;28;19926;-63
2023/08/21 09:01:40;;;;;;;;;;;;;;;28.91;36.15;100804.66;5088809;28;19920;-63
2023/08/21 09:04:05;;;;;;;;;;;;;;;28.77;35.52;100812.16;5093317;28;19946;-63
2023/08/21 09:06:32;;;;;;;;;;;;;;;28.90;35.84;100803.03;5093386;28;19924;-63
2023/08/21 09:08:57;;;;;;;;;;;;;;;29.06;37.00;100803.50;5085250;28;19912;-64
2023/08/21 09:11:23;;;;;;;;;;;;;;;29.22;36.64;100803.22;5080223;28;19913;-64
2023/08/21 09:13:53;;;;;;;;;;;;;;;29.24;35.19;100799.00;5076222;28;19919;-64
2023/08/21 09:16:19;;;;;;;;;;;;;;;29.23;34.31;100800.13;5093690;28;20376;-64
2023/08/21 09:18:51;;;;;;;;;;;;;;;29.29;35.05;100803.59;5091994;28;19973;-64
2023/08/21 09:21:17;;;;;;;;;;;;;;;29.24;35.00;100793.47;5069636;28;19917;-64
2023/08/21 09:23:43;;;;;;;;;;;;;;;29.19;34.32;100792.78;5073626;28;19912;-64
2023/08/21 09:26:09;;;;;;;;;;;;;;;29.19;33.49;100796.34;5084425;28;19969;-64
2023/08/21 09:28:34;;;;;;;;;;;;;;;29.15;33.82;100789.81;5093380;28;20591;-64
2023/08/21 09:31:00;;;;;;;;;;;;;;;29.13;33.43;100800.34;5094347;28;19912;-64
2023/08/21 09:33:25;;;;;;;;;;;;;;;29.20;33.16;100794.38;5092260;28;19990;-64
2023/08/21 09:35:52;;;;;;;;;;;;;;;29.28;33.51;100788.13;5085542;28;19924;-64
2023/08/21 09:38:18;;;;;;;;;;;;;;;29.23;33.30;100793.78;5071204;28;19924;-64
2023/08/21 09:40:51;;;;;;;;;;;;;;;29.39;33.68;100789.53;5073696;28;19913;-64
2023/08/21 09:43:16;;;;;;;;;;;;;;;29.37;32.93;100785.44;5073025;28;19916;-64
2023/08/21 09:45:45;;;;;;;;;;;;;;;29.23;34.00;100791.00;5078956;28;20272;-64
2023/08/21 09:48:11;;;;;;;;;;;;;;;29.18;32.50;100791.97;5072995;28;19955;-64
2023/08/21 09:50:38;;;;;;;;;;;;;;;29.12;32.38;100785.69;5074223;28;20009;-64
2023/08/21 09:53:05;;;;;;;;;;;;;;;29.43;33.81;100782.22;5072464;28;19920;-64
2023/08/21 09:55:32;;;;;;;;;;;;;;;29.64;32.90;100776.19;5072393;28;20357;-64
2023/08/21 09:57:58;;;;;;;;;;;;;;;29.43;32.06;100779.47;5073984;28;20404;-64
2023/08/21 10:00:31;;;;;;;;;;;;;;;29.26;32.18;100782.09;5072489;28;19935;-64
2023/08/21 10:02:59;;;;;;;;;;;;;;;29.42;32.43;100783.38;5077909;28;19928;-64
2023/08/21 10:05:25;;;;;;;;;;;;;;;29.63;31.83;100780.94;5073001;28;19912;-64
2023/08/21 10:07:51;;;;;;;;;;;;;;;29.86;32.96;100776.22;5070503;28;19920;-64
2023/08/21 10:10:17;;;;;;;;;;;;;;;30.01;33.52;100775.00;5080307;28;19912;-64
2023/08/21 10:12:43;;;;;;;;;;;;;;;30.20;33.20;100768.41;5093198;28;20276;-63
2023/08/21 10:15:09;;;;;;;;;;;;;;;30.30;32.23;100770.91;5088374;28;19936;-64
2023/08/21 10:17:35;;;;;;;;;;;;;;;30.51;33.54;100770.38;5093421;28;19919;-64
2023/08/21 10:20:04;;;;;;;;;;;;;;;30.74;32.22;100773.84;5092391;28;19998;-64
2023/08/21 10:22:38;;;;;;;;;;;;;;;30.87;30.91;100767.38;5075672;28;19999;-64
2023/08/21 10:25:03;;;;;;;;;;;;;;;31.01;31.79;100768.03;5072320;28;19966;-64
2023/08/21 10:27:29;;;;;;;;;;;;;;;31.15;29.29;100773.47;5073916;28;19912;-63
2023/08/21 10:29:58;;;;;;;;;;;;;;;31.12;29.79;100732.47;5092271;28;19920;-64
2023/08/21 10:32:23;;;;;;;;;;;;;;;31.54;29.58;100776.44;5092202;28;20364;-64
2023/08/21 10:34:53;;;;;;;;;;;;;;;31.65;29.05;100769.38;5057937;28;19930;-64
2023/08/21 10:37:18;;;;;;;;;;;;;;;31.84;30.09;100769.81;5092353;28;19912;-64
2023/08/21 10:39:54;;;;;;;;;;;;;;;31.88;28.29;100767.22;5084060;28;19916;-64
2023/08/21 10:42:36;;;;;;;;;;;;;;;31.81;28.17;100767.69;5071827;28;19912;-64
2023/08/21 10:45:09;;;;;;;;;;;;;;;32.08;28.68;100764.91;5055624;28;20010;-64
2023/08/21 10:47:35;;;;;;;;;;;;;;;32.15;27.04;100756.84;5090151;28;20295;-64
2023/08/21 10:50:06;;;;;;;;;;;;;;;32.28;28.99;100761.38;5090200;28;19935;-64
2023/08/21 10:52:35;;;;;;;;;;;;;;;32.39;26.79;100765.44;5084576;28;19916;-64
2023/08/21 10:55:00;;;;;;;;;;;;;;;32.60;28.49;100765.50;5080161;28;19916;-64
2023/08/21 10:57:27;;;;;;;;;;;;;;;32.90;26.99;100765.47;5058809;28;19992;-64
2023/08/21 10:59:54;;;;;;;;;;;;;;;32.96;26.98;100764.13;5090945;28;19946;-64
2023/08/21 11:02:19;;;;;;;;;;;;;;;33.37;30.21;100762.50;5091524;28;20041;-64
2023/08/21 11:04:44;;;;;;;;;;;;;;;33.64;25.68;100760.34;5083472;28;20011;-64
2023/08/21 11:07:10;;;;;;;;;;;;;;;33.75;27.85;100760.72;5072091;28;19916;-64
2023/08/21 11:09:36;;;;;;;;;;;;;;;33.81;25.19;100761.31;5070567;28;20636;-64
2023/08/21 11:12:08;;;;;;;;;;;;;;;33.89;27.13;100749.25;5069256;28;19943;-64
2023/08/21 11:14:35;;;;;;;;;;;;;;;34.08;27.17;100765.41;5072340;28;20011;-64
2023/08/21 11:17:00;;;;;;;;;;;;;;;34.21;23.71;100758.72;5085458;28;19938;-64
2023/08/21 11:19:25;;;;;;;;;;;;;;;34.42;26.73;100764.19;5092069;28;19915;-64
2023/08/21 11:21:51;;;;;;;;;;;;;;;34.66;26.86;100763.38;5071226;28;19927;-64
2023/08/21 11:24:16;;;;;;;;;;;;;;;34.72;24.42;100765.97;5071539;28;19922;-64
2023/08/21 11:26:42;;;;;;;;;;;;;;;34.73;26.24;100765.59;5071911;28;20010;-64
2023/08/21 11:29:07;;;;;;;;;;;;;;;34.60;24.59;100767.53;5083036;28;19919;-64
2023/08/21 11:31:32;;;;;;;;;;;;;;;34.60;24.34;100764.75;5075306;28;19916;-64
2023/08/21 11:33:58;;;;;;;;;;;;;;;34.63;23.38;100757.69;5074062;28;19913;-64
2023/08/21 11:36:23;;;;;;;;;;;;;;;34.85;23.03;100760.00;5074532;28;19928;-64
2023/08/21 11:38:57;;;;;;;;;;;;;;;34.88;21.90;100759.31;5071145;28;20019;-64
2023/08/21 11:41:23;;;;;;;;;;;;;;;35.09;22.98;100761.13;5069611;28;19912;-64
2023/08/21 11:43:48;;;;;;;;;;;;;;;35.39;23.60;100764.41;5091450;28;19965;-63
2023/08/21 11:46:14;;;;;;;;;;;;;;;35.79;23.80;100755.16;5092064;28;19935;-64
2023/08/21 11:48:40;;;;;;;;;;;;;;;36.13;22.98;100760.41;5088691;28;19918;-64
2023/08/21 11:51:06;;;;;;;;;;;;;;;36.12;22.50;100770.75;5092307;28;19920;-64
2023/08/21 11:53:34;;;;;;;;;;;;;;;36.00;21.92;100752.09;5085053;28;19939;-64
2023/08/21 11:55:59;;;;;;;;;;;;;;;35.88;22.77;100760.56;5070692;28;19928;-64
2023/08/21 11:58:30;;;;;;;;;;;;;;;35.95;22.28;100763.53;5073128;28;20552;-64
2023/08/21 12:01:03;;;;;;;;;;;;;;;36.08;22.59;100767.06;5073908;28;20357;-64
2023/08/21 12:03:29;;;;;;;;;;;;;;;36.17;22.03;100764.09;5091139;28;19927;-64
2023/08/21 12:05:55;;;;;;;;;;;;;;;36.03;20.78;100768.16;5090775;28;19912;-64
2023/08/21 12:08:20;;;;;;;;;;;;;;;36.21;22.07;100759.44;5096106;28;20357;-64
2023/08/21 12:10:52;;;;;;;;;;;;;;;36.26;23.31;100758.34;5095724;28;19916;-64
2023/08/21 12:13:18;;;;;;;;;;;;;;;36.55;23.35;100760.69;5078600;28;19916;-64
2023/08/21 12:15:43;;;;;;;;;;;;;;;36.73;20.32;100765.91;5095216;28;19923;-64
2023/08/21 12:18:09;;;;;;;;;;;;;;;37.11;22.55;100764.31;5087811;28;20003;-64
2023/08/21 12:20:34;;;;;;;;;;;;;;;37.50;22.66;100765.16;5080710;28;19924;-64
2023/08/21 12:22:59;;;;;;;;;;;;;;;37.83;20.56;100760.97;5077501;28;20900;-64
2023/08/21 12:25:24;;;;;;;;;;;;;;;38.15;20.25;100766.38;5078106;28;19916;-65
2023/08/21 12:27:50;;;;;;;;;;;;;;;37.76;17.39;100766.47;5074980;28;19917;-65
2023/08/21 12:30:15;;;;;;;;;;;;;;;37.90;19.99;100761.13;5080134;28;19919;-65